Terminal Aerodrome Forecast
Issued by NWS Milwaukee/Sullivan, WI

Home | Current Version | Previous Version | Text Only | Print | Product List | Glossary On
Versions: 1 2 3 4 5 6 7 8 9 10 11 12 13 14 15 16 17 18 19 20 21 22 23 24 25 26 27 28 29 30 31 32 33 34 35 36 37
000
FTUS43 KMKX 180520
TAFMSN
TAF
KMSN 180520Z 1806/1906 00000KT P6SM FEW250
     FM181100 03006KT P6SM SCT250
     FM181300 05012G19KT P6SM SCT250
     FM181600 08014G19KT P6SM SCT250
     FM190000 09009KT P6SM BKN200=

USA.gov is the U.S. government's official web portal to all federal, state and local government web resources and services.